createdAt,value
2018-06-13T00:01:39.305Z,98792.62
2018-06-13T00:04:42.276Z,98790.08
2018-06-13T00:07:45.300Z,98792.91
2018-06-13T00:10:48.331Z,98798.98
2018-06-13T00:13:51.358Z,98801.81
2018-06-13T00:16:54.392Z,98798.34
2018-06-13T00:19:57.301Z,98794.13
2018-06-13T00:23:00.254Z,98791.55
2018-06-13T00:26:03.282Z,98802.46
2018-06-13T00:29:06.338Z,98797.59
2018-06-13T00:32:09.341Z,98793.17
2018-06-13T00:35:12.366Z,98795.01
2018-06-13T00:38:15.409Z,98799.34
2018-06-13T00:41:18.348Z,98794.47
2018-06-13T00:44:21.428Z,98793.55
2018-06-13T00:47:24.481Z,98792.47
2018-06-13T00:50:27.559Z,98797.03
2018-06-13T00:53:30.459Z,98797.84
2018-06-13T00:56:33.462Z,98794.78
2018-06-13T00:59:37.358Z,98794.17
2018-06-13T01:02:40.313Z,98794.55
2018-06-13T01:05:43.381Z,98799.19
2018-06-13T01:08:46.409Z,98797.26
2018-06-13T01:11:49.339Z,98795.83
2018-06-13T01:14:52.308Z,98791.58
2018-06-13T01:17:55.271Z,98794.63
2018-06-13T01:20:58.241Z,98796.02
2018-06-13T01:24:01.266Z,98798.27
2018-06-13T01:27:04.223Z,98802.59
2018-06-13T01:30:07.240Z,98795.47
2018-06-13T01:33:10.544Z,98794.35
2018-06-13T01:36:19.762Z,98795.13
2018-06-13T01:39:22.748Z,98798.75
2018-06-13T01:42:25.736Z,98791.45
2018-06-13T01:45:28.671Z,98789.13
2018-06-13T01:48:31.642Z,98781.63
2018-06-13T01:51:34.584Z,98785.88
2018-06-13T01:54:37.639Z,98791.95
2018-06-13T01:57:40.563Z,98789.75
2018-06-13T02:00:43.601Z,98796.70
2018-06-13T02:03:46.557Z,98786.12
2018-06-13T02:06:49.536Z,98785.50
2018-06-13T02:09:52.552Z,98787.31
2018-06-13T02:12:55.502Z,98785.38
2018-06-13T02:15:58.465Z,98784.26
2018-06-13T02:19:01.542Z,98789.67
2018-06-13T02:22:04.478Z,98795.86
2018-06-13T02:25:07.469Z,98790.98
2018-06-13T02:28:10.452Z,98795.36
2018-06-13T02:31:13.339Z,98789.17
2018-06-13T02:34:16.447Z,98791.68
2018-06-13T02:37:19.463Z,98789.44
2018-06-13T02:40:22.392Z,98789.37
2018-06-13T02:43:26.325Z,98788.94
2018-06-13T02:46:29.344Z,98787.74
2018-06-13T02:49:32.322Z,98784.50
2018-06-13T02:52:35.272Z,98784.30
2018-06-13T02:55:38.260Z,98776.42
2018-06-13T02:58:41.296Z,98786.08
2018-06-13T03:01:44.173Z,98786.72
2018-06-13T03:04:47.149Z,98793.36
2018-06-13T03:07:50.182Z,98788.81
2018-06-13T03:10:53.099Z,98789.31
2018-06-13T03:13:56.121Z,98803.06
2018-06-13T03:17:00.149Z,98806.81
2018-06-13T03:20:03.145Z,98807.74
2018-06-13T03:23:06.080Z,98804.19
2018-06-13T03:26:10.065Z,98803.87
2018-06-13T03:29:13.033Z,98810.98
2018-06-13T03:32:15.920Z,98819.63
2018-06-13T03:35:18.883Z,98818.56
2018-06-13T03:38:22.507Z,98830.88
2018-06-13T03:41:25.497Z,98831.06
2018-06-13T03:44:28.490Z,98826.56
2018-06-13T03:47:31.416Z,98829.75
2018-06-13T03:50:34.370Z,98834.19
2018-06-13T03:53:37.279Z,98836.50
2018-06-13T03:56:40.244Z,98828.17
2018-06-13T03:59:43.216Z,98831.58
2018-06-13T04:02:46.189Z,98837.83
2018-06-13T04:05:49.210Z,98836.37
2018-06-13T04:08:52.163Z,98841.61
2018-06-13T04:11:55.173Z,98843.15
2018-06-13T04:14:58.190Z,98847.05
2018-06-13T04:18:01.127Z,98850.83
2018-06-13T04:21:04.162Z,98856.24
2018-06-13T04:24:07.220Z,98857.67
2018-06-13T04:27:10.209Z,98854.03
2018-06-13T04:30:13.128Z,98857.25
2018-06-13T04:33:16.085Z,98852.15
2018-06-13T04:36:19.009Z,98852.87
2018-06-13T04:39:21.978Z,98844.06
2018-06-13T04:42:24.958Z,98845.30
2018-06-13T04:45:27.872Z,98848.42
2018-06-13T04:48:30.806Z,98847.88
2018-06-13T04:51:33.816Z,98848.22
2018-06-13T04:54:36.797Z,98849.17
2018-06-13T04:57:39.873Z,98853.09
2018-06-13T05:00:42.901Z,98857.28
2018-06-13T05:03:45.801Z,98862.19
2018-06-13T05:06:48.805Z,98873.86
2018-06-13T05:09:51.910Z,98869.88
2018-06-13T05:12:54.840Z,98866.93
2018-06-13T05:15:57.858Z,98869.12
2018-06-13T05:19:00.760Z,98868.16
2018-06-13T05:22:03.714Z,98860.05
2018-06-13T05:25:06.786Z,98864.12
2018-06-13T05:28:09.834Z,98865.69
2018-06-13T05:31:12.745Z,98876.06
2018-06-13T05:34:15.819Z,98878.19
2018-06-13T05:37:18.841Z,98885.12
2018-06-13T05:40:21.815Z,98880.25
2018-06-13T05:43:24.889Z,98883.50
2018-06-13T05:46:27.831Z,98885.56
2018-06-13T05:49:30.754Z,98896.63
2018-06-13T05:52:34.365Z,98899.95
2018-06-13T05:55:37.465Z,98896.13
2018-06-13T05:58:40.496Z,98897.07
2018-06-13T06:01:43.634Z,98896.82
2018-06-13T06:04:46.614Z,98912.26
2018-06-13T06:07:51.012Z,98911.02
2018-06-13T06:10:54.078Z,98917.52
2018-06-13T06:13:57.125Z,98914.39
2018-06-13T06:17:00.211Z,98918.82
2018-06-13T06:20:04.764Z,98915.14
2018-06-13T06:23:07.776Z,98913.58
2018-06-13T06:26:11.115Z,98915.33
2018-06-13T06:29:14.091Z,98920.77
2018-06-13T06:32:17.097Z,98916.76
2018-06-13T06:35:20.083Z,98919.00
2018-06-13T06:38:23.137Z,98918.67
2018-06-13T06:41:26.077Z,98924.34
2018-06-13T06:44:29.025Z,98925.81
2018-06-13T06:47:33.071Z,98931.70
2018-06-13T06:50:36.019Z,98928.28
2018-06-13T06:53:39.089Z,98939.05
2018-06-13T06:56:42.153Z,98937.36
2018-06-13T06:59:45.182Z,98940.07
2018-06-13T07:02:48.361Z,98937.43
2018-06-13T07:05:51.320Z,98932.63
2018-06-13T07:08:54.360Z,98933.61
2018-06-13T07:11:57.397Z,98940.61
2018-06-13T07:15:00.369Z,98937.89
2018-06-13T07:18:03.341Z,98942.59
2018-06-13T07:21:07.062Z,98937.51
2018-06-13T07:24:10.067Z,98939.52
2018-06-13T07:27:13.148Z,98943.53
2018-06-13T07:30:16.094Z,98956.48
2018-06-13T07:33:19.212Z,98950.34
2018-06-13T07:36:22.194Z,98952.09
2018-06-13T07:39:25.216Z,98948.02
2018-06-13T07:42:28.291Z,98949.53
2018-06-13T07:45:31.234Z,98945.52
2018-06-13T07:48:35.294Z,98954.09
2018-06-13T07:51:38.393Z,98957.42
2018-06-13T07:54:41.344Z,98958.00
2018-06-13T07:57:44.351Z,98952.89
2018-06-13T08:00:47.352Z,98955.37
2018-06-13T08:03:50.319Z,98959.40
2018-06-13T08:06:53.308Z,98958.38
2018-06-13T08:09:56.306Z,98955.58
2018-06-13T08:12:59.334Z,98953.16
2018-06-13T08:16:02.421Z,98954.83
2018-06-13T08:19:05.299Z,98959.08
2018-06-13T08:22:08.374Z,98956.08
2018-06-13T08:25:11.317Z,98965.97
2018-06-13T08:28:14.301Z,98952.66
2018-06-13T08:31:17.306Z,98958.09
2018-06-13T08:34:20.277Z,98964.06
2018-06-13T08:37:23.317Z,98962.28
2018-06-13T08:40:26.281Z,98958.73
2018-06-13T08:43:29.288Z,98970.64
2018-06-13T08:46:32.268Z,98966.14
2018-06-13T08:49:35.271Z,98963.77
2018-06-13T08:52:38.305Z,98961.05
2018-06-13T08:55:41.427Z,98962.88
2018-06-13T08:58:44.688Z,98967.73
2018-06-13T09:01:47.716Z,98967.52
2018-06-13T09:04:50.746Z,98975.42
2018-06-13T09:07:53.653Z,98976.88
2018-06-13T09:10:56.555Z,98977.67
2018-06-13T09:13:59.483Z,98982.07
2018-06-13T09:17:02.955Z,98981.38
2018-06-13T09:20:06.600Z,98989.55
2018-06-13T09:23:09.554Z,98997.81
2018-06-13T09:26:12.556Z,98996.41
2018-06-13T09:29:15.728Z,98993.13
2018-06-13T09:32:18.748Z,98988.90
2018-06-13T09:35:21.847Z,98988.70
2018-06-13T09:38:25.894Z,98995.72
2018-06-13T09:41:28.996Z,98992.78
2018-06-13T09:44:32.003Z,98993.98
2018-06-13T09:47:34.984Z,98990.30
2018-06-13T09:50:38.028Z,98987.18
2018-06-13T09:53:41.108Z,98999.73
2018-06-13T09:56:44.190Z,99000.78
2018-06-13T09:59:52.895Z,99011.34
2018-06-13T10:02:55.842Z,99010.95
2018-06-13T10:05:59.509Z,99010.63
2018-06-13T10:09:06.306Z,99013.89
2018-06-13T10:12:09.481Z,99010.94
2018-06-13T10:15:12.500Z,99023.33
2018-06-13T10:18:15.571Z,99017.69
2018-06-13T10:21:18.616Z,99010.00
2018-06-13T10:24:22.556Z,99021.28
2018-06-13T10:27:31.270Z,99026.37
2018-06-13T10:30:34.308Z,99024.56
2018-06-13T10:33:37.482Z,99024.14
2018-06-13T10:36:41.479Z,99026.16
2018-06-13T10:39:44.460Z,99024.84
2018-06-13T10:42:47.446Z,99024.32
2018-06-13T10:45:50.491Z,99022.97
2018-06-13T10:48:53.541Z,99024.05
2018-06-13T10:51:57.523Z,99023.97
2018-06-13T10:55:02.525Z,99024.02
2018-06-13T10:58:05.477Z,99025.50
2018-06-13T11:01:08.456Z,99032.77
2018-06-13T11:04:11.408Z,99026.65
2018-06-13T11:07:14.422Z,99025.17
2018-06-13T11:10:18.496Z,99025.33
2018-06-13T11:13:21.619Z,99023.50
2018-06-13T11:16:24.776Z,99021.73
2018-06-13T11:19:27.799Z,99024.69
2018-06-13T11:22:31.836Z,99019.39
2018-06-13T11:25:35.497Z,99023.44
2018-06-13T11:28:38.494Z,99028.80
2018-06-13T11:31:41.592Z,99027.26
2018-06-13T11:34:46.588Z,99032.75
2018-06-13T11:37:49.712Z,99029.39
2018-06-13T11:40:53.633Z,99029.52
2018-06-13T11:43:56.774Z,99030.50
2018-06-13T11:46:59.950Z,99030.23
2018-06-13T11:50:02.938Z,99033.28
2018-06-13T11:53:05.950Z,99033.56
2018-06-13T11:56:08.899Z,99033.47
2018-06-13T11:59:12.981Z,99028.50
2018-06-13T12:02:15.940Z,99028.50
2018-06-13T12:05:18.922Z,99036.61
2018-06-13T12:08:21.840Z,99048.59
2018-06-13T12:11:26.483Z,99044.95
2018-06-13T12:14:30.611Z,99043.02
2018-06-13T12:17:33.687Z,99048.19
2018-06-13T12:20:37.679Z,99046.16
2018-06-13T12:23:40.756Z,99041.80
2018-06-13T12:26:43.905Z,99047.57
2018-06-13T12:29:47.899Z,99045.13
2018-06-13T12:32:50.908Z,99047.06
2018-06-13T12:35:54.899Z,99057.29
2018-06-13T12:38:58.875Z,99049.12
2018-06-13T12:42:01.892Z,99048.17
2018-06-13T12:45:05.209Z,99044.35
2018-06-13T12:48:09.367Z,99036.33
2018-06-13T12:51:12.363Z,99037.19
2018-06-13T12:54:16.133Z,99033.09
2018-06-13T12:57:19.136Z,99027.11
2018-06-13T13:00:22.204Z,99038.86
2018-06-13T13:03:25.285Z,99039.02
2018-06-13T13:06:28.284Z,99042.08
2018-06-13T13:09:31.275Z,99048.37
2018-06-13T13:12:34.375Z,99047.33
2018-06-13T13:15:37.368Z,99040.23
2018-06-13T13:18:40.370Z,99051.61
2018-06-13T13:21:43.336Z,99055.19
2018-06-13T13:24:46.401Z,99050.80
2018-06-13T13:27:50.243Z,99054.67
2018-06-13T13:30:53.354Z,99047.08
2018-06-13T13:33:56.425Z,99058.05
2018-06-13T13:36:59.451Z,99058.56
2018-06-13T13:40:02.509Z,99055.91
2018-06-13T13:43:05.669Z,99058.26
2018-06-13T13:46:08.707Z,99059.95
2018-06-13T13:49:11.788Z,99057.06
2018-06-13T13:52:14.805Z,99057.24
2018-06-13T13:55:17.954Z,99053.48
2018-06-13T13:58:22.708Z,99055.55
2018-06-13T14:01:25.730Z,99057.65
2018-06-13T14:04:28.907Z,99052.03
2018-06-13T14:07:32.016Z,99049.42
2018-06-13T14:10:34.998Z,99058.25
2018-06-13T14:13:38.155Z,99055.02
2018-06-13T14:16:41.228Z,99060.30
2018-06-13T14:19:44.285Z,99061.92
2018-06-13T14:22:47.491Z,99063.47
2018-06-13T14:25:51.245Z,99061.90
2018-06-13T14:28:54.418Z,99062.63
2018-06-13T14:31:57.431Z,99066.36
2018-06-13T14:35:00.564Z,99059.44
2018-06-13T14:38:03.621Z,99068.28
2018-06-13T14:41:06.694Z,99067.81
2018-06-13T14:44:09.705Z,99070.78
2018-06-13T14:47:12.711Z,99066.82
2018-06-13T14:50:15.831Z,99071.20
2018-06-13T14:53:18.780Z,99071.15
2018-06-13T14:56:27.450Z,99068.70
2018-06-13T14:59:30.475Z,99073.75
2018-06-13T15:02:33.606Z,99069.23
2018-06-13T15:05:36.689Z,99060.56
2018-06-13T15:08:39.787Z,99061.77
2018-06-13T15:11:43.053Z,99057.32
2018-06-13T15:14:48.156Z,99060.72
2018-06-13T15:17:51.227Z,99057.84
2018-06-13T15:20:54.277Z,99065.89
2018-06-13T15:23:58.307Z,99065.22
2018-06-13T15:27:01.353Z,99069.46
2018-06-13T15:30:04.549Z,99064.75
2018-06-13T15:33:08.360Z,99063.64
2018-06-13T15:36:11.389Z,99073.98
2018-06-13T15:39:15.247Z,99070.16
2018-06-13T15:42:18.211Z,99068.33
2018-06-13T15:45:21.225Z,99068.14
2018-06-13T15:48:24.238Z,99074.87
2018-06-13T15:51:28.232Z,99076.69
2018-06-13T15:54:31.297Z,99071.48
2018-06-13T15:57:34.381Z,99074.08
2018-06-13T16:00:37.343Z,99065.61
2018-06-13T16:03:40.263Z,99074.39
2018-06-13T16:06:43.252Z,99071.35
2018-06-13T16:09:46.211Z,99075.59
2018-06-13T16:12:49.262Z,99066.38
2018-06-13T16:15:53.336Z,99064.58
2018-06-13T16:18:56.525Z,99067.47
2018-06-13T16:21:59.514Z,99069.31
2018-06-13T16:25:02.756Z,99074.28
2018-06-13T16:28:05.824Z,99082.72
2018-06-13T16:31:08.967Z,99080.36
2018-06-13T16:34:12.085Z,99076.98
2018-06-13T16:37:15.220Z,99075.50
2018-06-13T16:40:18.265Z,99074.88
2018-06-13T16:43:21.294Z,99076.78
2018-06-13T16:46:24.313Z,99078.16
2018-06-13T16:49:27.654Z,99082.09
2018-06-13T16:52:47.737Z,99083.92
2018-06-13T16:55:50.745Z,99088.20
2018-06-13T16:58:54.766Z,99088.67
2018-06-13T17:01:57.735Z,99086.37
2018-06-13T17:05:00.789Z,99092.88
2018-06-13T17:08:03.868Z,99096.20
2018-06-13T17:11:06.871Z,99107.18
2018-06-13T17:14:09.936Z,99098.92
2018-06-13T17:17:12.923Z,99102.58
2018-06-13T17:20:15.886Z,99107.95
2018-06-13T17:23:19.131Z,99101.97
2018-06-13T17:26:25.208Z,99108.26
2018-06-13T17:29:28.827Z,99110.69
2018-06-13T17:32:31.911Z,99114.85
2018-06-13T17:35:34.982Z,99115.97
2018-06-13T17:38:38.052Z,99119.61
2018-06-13T17:41:42.228Z,99113.73
2018-06-13T17:44:45.535Z,99118.98
2018-06-13T17:47:48.543Z,99121.81
2018-06-13T17:50:51.706Z,99121.70
2018-06-13T17:53:54.842Z,99121.77
2018-06-13T17:56:57.856Z,99118.80
2018-06-13T18:00:04.895Z,99124.37
2018-06-13T18:03:07.900Z,99131.03
2018-06-13T18:06:10.877Z,99128.59
2018-06-13T18:09:14.206Z,99139.86
2018-06-13T18:12:17.992Z,99136.41
2018-06-13T18:15:20.959Z,99131.12
2018-06-13T18:18:23.988Z,99137.80
2018-06-13T18:21:31.076Z,99130.78
2018-06-13T18:24:34.176Z,99132.66
2018-06-13T18:27:37.219Z,99135.47
2018-06-13T18:30:41.290Z,99146.31
2018-06-13T18:33:44.346Z,99148.22
2018-06-13T18:36:47.320Z,99150.56
2018-06-13T18:39:50.362Z,99148.67
2018-06-13T18:42:53.323Z,99154.05
2018-06-13T18:45:56.466Z,99152.91
2018-06-13T18:48:59.471Z,99147.41
2018-06-13T18:52:02.516Z,99154.95
2018-06-13T18:55:05.513Z,99152.09
2018-06-13T18:58:14.273Z,99158.83
2018-06-13T19:01:17.495Z,99152.12
2018-06-13T19:04:20.548Z,99152.70
2018-06-13T19:07:23.531Z,99155.02
2018-06-13T19:10:26.456Z,99168.02
2018-06-13T19:13:30.429Z,99163.97
2018-06-13T19:16:33.545Z,99160.47
2018-06-13T19:19:36.512Z,99168.19
2018-06-13T19:22:39.651Z,99166.50
2018-06-13T19:25:42.811Z,99171.70
2018-06-13T19:28:45.811Z,99174.27
2018-06-13T19:31:48.793Z,99172.52
2018-06-13T19:34:51.783Z,99169.63
2018-06-13T19:37:55.777Z,99171.32
2018-06-13T19:40:58.988Z,99174.98
2018-06-13T19:44:02.021Z,99176.48
2018-06-13T19:47:10.889Z,99184.77
2018-06-13T19:50:13.912Z,99182.64
2018-06-13T19:53:22.637Z,99181.06
2018-06-13T19:56:27.720Z,99180.75
2018-06-13T19:59:30.722Z,99186.51
2018-06-13T20:02:39.432Z,99185.06
2018-06-13T20:05:43.033Z,99185.94
2018-06-13T20:08:46.056Z,99185.06
2018-06-13T20:11:50.100Z,99190.01
2018-06-13T20:14:58.756Z,99196.21
2018-06-13T20:18:07.345Z,99198.89
2018-06-13T20:21:11.276Z,99191.12
2018-06-13T20:24:14.276Z,99190.48
2018-06-13T20:27:22.900Z,99191.98
2018-06-13T20:30:31.389Z,99194.48
2018-06-13T20:33:34.498Z,99194.90
2018-06-13T20:36:37.585Z,99199.58
2018-06-13T20:39:40.644Z,99201.80
2018-06-13T20:42:43.593Z,99201.85
2018-06-13T20:45:46.842Z,99193.87
2018-06-13T20:48:49.903Z,99197.09
2018-06-13T20:51:52.966Z,99202.80
2018-06-13T20:54:56.002Z,99211.86
2018-06-13T20:57:59.008Z,99215.34
2018-06-13T21:01:02.012Z,99213.84
2018-06-13T21:04:05.084Z,99213.53
2018-06-13T21:07:07.989Z,99218.78
2018-06-13T21:10:11.054Z,99226.98
2018-06-13T21:13:13.995Z,99226.30
2018-06-13T21:16:17.521Z,99223.36
2018-06-13T21:19:20.644Z,99231.09
2018-06-13T21:22:23.788Z,99233.86
2018-06-13T21:25:26.777Z,99226.30
2018-06-13T21:28:29.741Z,99225.98
2018-06-13T21:31:32.760Z,99238.47
2018-06-13T21:34:35.791Z,99239.78
2018-06-13T21:37:38.740Z,99236.84
2018-06-13T21:40:41.820Z,99240.46
2018-06-13T21:43:44.815Z,99240.78
2018-06-13T21:46:47.839Z,99229.78
2018-06-13T21:49:50.949Z,99233.22
2018-06-13T21:52:55.324Z,99225.66
2018-06-13T21:55:59.458Z,99228.60
2018-06-13T21:59:02.517Z,99230.55
2018-06-13T22:02:05.529Z,99229.42
2018-06-13T22:05:10.151Z,99233.50
2018-06-13T22:08:13.121Z,99232.82
2018-06-13T22:11:17.801Z,99232.95
2018-06-13T22:14:22.053Z,99235.09
2018-06-13T22:17:25.502Z,99230.73
2018-06-13T22:20:31.032Z,99221.91
2018-06-13T22:23:33.985Z,99229.64
2018-06-13T22:26:37.597Z,99232.03
2018-06-13T22:29:41.777Z,99230.08
2018-06-13T22:32:46.400Z,99233.34
2018-06-13T22:35:49.526Z,99224.47
2018-06-13T22:38:55.329Z,99221.20
2018-06-13T22:41:59.030Z,99223.37
2018-06-13T22:45:02.104Z,99221.11
2018-06-13T22:48:05.196Z,99219.34
2018-06-13T22:51:08.216Z,99221.96
2018-06-13T22:54:13.238Z,99223.09
2018-06-13T22:57:17.347Z,99225.89
2018-06-13T23:00:26.121Z,99233.45
2018-06-13T23:03:30.190Z,99231.64
2018-06-13T23:06:34.379Z,99234.13
2018-06-13T23:09:37.345Z,99242.42
2018-06-13T23:12:41.317Z,99241.84
2018-06-13T23:15:46.069Z,99232.52
2018-06-13T23:18:49.085Z,99225.11
2018-06-13T23:21:52.015Z,99215.40
2018-06-13T23:24:55.621Z,99218.12
2018-06-13T23:27:58.796Z,99222.95
2018-06-13T23:31:01.719Z,99219.83
2018-06-13T23:34:05.067Z,99222.00
2018-06-13T23:37:08.071Z,99211.07
2018-06-13T23:40:12.187Z,99210.92
2018-06-13T23:43:15.829Z,99204.55
2018-06-13T23:46:19.683Z,99203.42
2018-06-13T23:49:24.280Z,99203.59
2018-06-13T23:52:27.892Z,99200.48
2018-06-13T23:55:32.015Z,99200.97
2018-06-13T23:58:35.730Z,99199.33
